Brooks, Minnesota
Current Conditions -  °F | °C
As of 2:55 PM on Saturday 25 Oct 2014 (Local Time) from KFSE Reporting Station
Clear Clear  
Wind Chill: 57°   Ceiling: Unl
Heat Index: 57°   Visibility: 10mi
Dew Point: 27°   Wind: 15mph
Humidity: 31%   Direction: 300°WNW
Pressure: 30.05"   Gusts: 22mph
Location:  47.81°N, 96°W
Report Text: KFSE 251955Z AUTO 30013G19KT 10SM CLR 14/M03 A3005 RMK AO2
Loading
Personal Weather Stations






























Interactive Weather Map
Tropical Storm Tracking
New forecast layout! Learn more

10-Day Weather Forecast

Advertisements
Track Severe Weather on mobile